sensor_id;sensor_type;location;lat;lon;timestamp;temperature;humidity
54485;DHT22;45006;56.958;24.166;2023-03-16T00:02:05;22.40;57.80
54485;DHT22;45006;56.958;24.166;2023-03-16T00:04:32;22.40;57.80
54485;DHT22;45006;56.958;24.166;2023-03-16T00:07:08;22.40;57.90
54485;DHT22;45006;56.958;24.166;2023-03-16T00:09:37;22.40;57.80
54485;DHT22;45006;56.958;24.166;2023-03-16T00:12:17;22.40;57.80
54485;DHT22;45006;56.958;24.166;2023-03-16T00:14:46;22.40;57.90
54485;DHT22;45006;56.958;24.166;2023-03-16T00:17:16;22.40;57.90
54485;DHT22;45006;56.958;24.166;2023-03-16T00:19:48;22.40;57.90
54485;DHT22;45006;56.958;24.166;2023-03-16T00:22:16;22.50;58.00
54485;DHT22;45006;56.958;24.166;2023-03-16T00:24:43;22.40;57.90
54485;DHT22;45006;56.958;24.166;2023-03-16T00:27:11;22.50;58.00
54485;DHT22;45006;56.958;24.166;2023-03-16T00:29:46;22.50;58.00
54485;DHT22;45006;56.958;24.166;2023-03-16T00:32:18;22.50;58.00
54485;DHT22;45006;56.958;24.166;2023-03-16T00:34:46;22.50;58.00
54485;DHT22;45006;56.958;24.166;2023-03-16T00:37:16;22.50;57.90
54485;DHT22;45006;56.958;24.166;2023-03-16T00:39:45;22.50;57.90
54485;DHT22;45006;56.958;24.166;2023-03-16T00:42:14;22.50;57.90
54485;DHT22;45006;56.958;24.166;2023-03-16T00:44:41;22.50;57.90
54485;DHT22;45006;56.958;24.166;2023-03-16T00:47:09;22.50;57.90
54485;DHT22;45006;56.958;24.166;2023-03-16T00:49:41;22.50;57.60
54485;DHT22;45006;56.958;24.166;2023-03-16T00:52:10;22.50;57.60
54485;DHT22;45006;56.958;24.166;2023-03-16T00:54:45;22.50;57.50
54485;DHT22;45006;56.958;24.166;2023-03-16T00:57:14;22.50;57.50
54485;DHT22;45006;56.958;24.166;2023-03-16T00:59:45;22.50;57.50
54485;DHT22;45006;56.958;24.166;2023-03-16T01:02:14;22.50;57.50
54485;DHT22;45006;56.958;24.166;2023-03-16T01:04:42;22.50;57.50
54485;DHT22;45006;56.958;24.166;2023-03-16T01:07:12;22.50;57.50
54485;DHT22;45006;56.958;24.166;2023-03-16T01:09:40;22.50;57.50
54485;DHT22;45006;56.958;24.166;2023-03-16T01:12:10;22.50;57.50
54485;DHT22;45006;56.958;24.166;2023-03-16T01:14:40;22.50;57.50
54485;DHT22;45006;56.958;24.166;2023-03-16T01:17:08;22.50;57.50
54485;DHT22;45006;56.958;24.166;2023-03-16T01:19:36;22.50;57.60
54485;DHT22;45006;56.958;24.166;2023-03-16T01:22:05;22.50;57.60
54485;DHT22;45006;56.958;24.166;2023-03-16T01:24:32;22.50;57.70
54485;DHT22;45006;56.958;24.166;2023-03-16T01:27:01;22.50;57.90
54485;DHT22;45006;56.958;24.166;2023-03-16T01:29:28;22.50;57.90
54485;DHT22;45006;56.958;24.166;2023-03-16T01:31:55;22.50;58.00
54485;DHT22;45006;56.958;24.166;2023-03-16T01:34:22;22.50;57.90
54485;DHT22;45006;56.958;24.166;2023-03-16T01:36:50;22.50;57.90
54485;DHT22;45006;56.958;24.166;2023-03-16T01:39:17;22.50;57.90
54485;DHT22;45006;56.958;24.166;2023-03-16T01:41:45;22.50;57.90
54485;DHT22;45006;56.958;24.166;2023-03-16T01:44:14;22.50;57.90
54485;DHT22;45006;56.958;24.166;2023-03-16T01:46:42;22.50;58.00
54485;DHT22;45006;56.958;24.166;2023-03-16T01:49:28;22.50;58.00
54485;DHT22;45006;56.958;24.166;2023-03-16T01:51:59;22.50;58.00
54485;DHT22;45006;56.958;24.166;2023-03-16T01:54:47;22.50;58.00
54485;DHT22;45006;56.958;24.166;2023-03-16T01:57:21;22.50;57.80
54485;DHT22;45006;56.958;24.166;2023-03-16T02:00:06;22.50;57.80
54485;DHT22;45006;56.958;24.166;2023-03-16T02:02:38;22.60;57.90
54485;DHT22;45006;56.958;24.166;2023-03-16T02:05:15;22.50;57.70
54485;DHT22;45006;56.958;24.166;2023-03-16T02:07:50;22.50;57.80
54485;DHT22;45006;56.958;24.166;2023-03-16T02:10:26;22.50;57.80
54485;DHT22;45006;56.958;24.166;2023-03-16T02:12:54;22.50;57.70
54485;DHT22;45006;56.958;24.166;2023-03-16T02:15:24;22.50;57.70
54485;DHT22;45006;56.958;24.166;2023-03-16T02:17:51;22.50;57.70
54485;DHT22;45006;56.958;24.166;2023-03-16T02:21:11;22.50;57.80
54485;DHT22;45006;56.958;24.166;2023-03-16T02:23:19;22.60;57.70
54485;DHT22;45006;56.958;24.166;2023-03-16T02:31:28;22.50;57.80
54485;DHT22;45006;56.958;24.166;2023-03-16T02:33:55;22.60;57.90
54485;DHT22;45006;56.958;24.166;2023-03-16T02:36:22;22.60;57.80
54485;DHT22;45006;56.958;24.166;2023-03-16T02:38:49;22.60;57.80
54485;DHT22;45006;56.958;24.166;2023-03-16T02:41:18;22.60;57.80
54485;DHT22;45006;56.958;24.166;2023-03-16T02:44:03;22.60;57.90
54485;DHT22;45006;56.958;24.166;2023-03-16T02:46:32;22.60;57.80
54485;DHT22;45006;56.958;24.166;2023-03-16T02:49:23;22.60;57.80
54485;DHT22;45006;56.958;24.166;2023-03-16T02:51:50;22.60;57.70
54485;DHT22;45006;56.958;24.166;2023-03-16T02:54:18;22.60;57.60
54485;DHT22;45006;56.958;24.166;2023-03-16T02:56:44;22.60;57.60
54485;DHT22;45006;56.958;24.166;2023-03-16T02:59:11;22.60;57.80
54485;DHT22;45006;56.958;24.166;2023-03-16T03:01:38;22.60;57.70
54485;DHT22;45006;56.958;24.166;2023-03-16T03:04:05;22.60;57.70
54485;DHT22;45006;56.958;24.166;2023-03-16T03:06:33;22.60;57.60
54485;DHT22;45006;56.958;24.166;2023-03-16T03:09:00;22.60;57.50
54485;DHT22;45006;56.958;24.166;2023-03-16T03:11:28;22.60;57.70
54485;DHT22;45006;56.958;24.166;2023-03-16T03:13:55;22.60;57.40
54485;DHT22;45006;56.958;24.166;2023-03-16T03:16:23;22.60;57.60
54485;DHT22;45006;56.958;24.166;2023-03-16T03:18:50;22.60;57.60
54485;DHT22;45006;56.958;24.166;2023-03-16T03:21:19;22.60;57.50
54485;DHT22;45006;56.958;24.166;2023-03-16T03:23:46;22.60;57.50
54485;DHT22;45006;56.958;24.166;2023-03-16T03:26:14;22.60;57.50
54485;DHT22;45006;56.958;24.166;2023-03-16T03:28:41;22.60;57.60
54485;DHT22;45006;56.958;24.166;2023-03-16T03:31:15;22.60;57.50
54485;DHT22;45006;56.958;24.166;2023-03-16T03:33:43;22.60;57.50
54485;DHT22;45006;56.958;24.166;2023-03-16T03:36:10;22.60;57.40
54485;DHT22;45006;56.958;24.166;2023-03-16T03:38:38;22.60;57.40
54485;DHT22;45006;56.958;24.166;2023-03-16T03:41:05;22.60;57.40
54485;DHT22;45006;56.958;24.166;2023-03-16T03:43:35;22.60;57.50
54485;DHT22;45006;56.958;24.166;2023-03-16T03:46:03;22.60;57.50
54485;DHT22;45006;56.958;24.166;2023-03-16T03:48:30;22.60;57.50
54485;DHT22;45006;56.958;24.166;2023-03-16T03:50:57;22.60;57.50
54485;DHT22;45006;56.958;24.166;2023-03-16T03:53:24;22.60;57.50
54485;DHT22;45006;56.958;24.166;2023-03-16T03:55:51;22.60;57.50
54485;DHT22;45006;56.958;24.166;2023-03-16T03:58:19;22.60;57.50
54485;DHT22;45006;56.958;24.166;2023-03-16T04:00:46;22.60;57.40
54485;DHT22;45006;56.958;24.166;2023-03-16T04:03:13;22.60;57.40
54485;DHT22;45006;56.958;24.166;2023-03-16T04:05:40;22.60;57.30
54485;DHT22;45006;56.958;24.166;2023-03-16T04:08:07;22.60;57.30
54485;DHT22;45006;56.958;24.166;2023-03-16T04:10:34;22.60;57.30
54485;DHT22;45006;56.958;24.166;2023-03-16T04:13:01;22.60;57.30
54485;DHT22;45006;56.958;24.166;2023-03-16T04:15:29;22.60;57.20
54485;DHT22;45006;56.958;24.166;2023-03-16T04:17:58;22.60;57.40
54485;DHT22;45006;56.958;24.166;2023-03-16T04:20:26;22.60;57.30
54485;DHT22;45006;56.958;24.166;2023-03-16T04:22:55;22.60;57.20
54485;DHT22;45006;56.958;24.166;2023-03-16T04:25:27;22.60;57.20
54485;DHT22;45006;56.958;24.166;2023-03-16T04:27:58;22.60;57.10
54485;DHT22;45006;56.958;24.166;2023-03-16T04:30:25;22.60;57.10
54485;DHT22;45006;56.958;24.166;2023-03-16T04:32:53;22.60;57.10
54485;DHT22;45006;56.958;24.166;2023-03-16T04:35:19;22.70;57.30
54485;DHT22;45006;56.958;24.166;2023-03-16T04:37:47;22.60;57.10
54485;DHT22;45006;56.958;24.166;2023-03-16T04:40:14;22.60;57.80
54485;DHT22;45006;56.958;24.166;2023-03-16T04:42:42;22.60;57.20
54485;DHT22;45006;56.958;24.166;2023-03-16T04:45:10;22.60;57.10
54485;DHT22;45006;56.958;24.166;2023-03-16T04:47:38;22.60;57.20
54485;DHT22;45006;56.958;24.166;2023-03-16T04:50:06;22.60;57.40
54485;DHT22;45006;56.958;24.166;2023-03-16T04:52:33;22.70;57.20
54485;DHT22;45006;56.958;24.166;2023-03-16T04:55:00;22.60;57.10
54485;DHT22;45006;56.958;24.166;2023-03-16T04:57:27;22.70;57.20
54485;DHT22;45006;56.958;24.166;2023-03-16T04:59:54;22.70;57.20
54485;DHT22;45006;56.958;24.166;2023-03-16T05:02:21;22.70;57.20
54485;DHT22;45006;56.958;24.166;2023-03-16T05:04:48;22.70;57.20
54485;DHT22;45006;56.958;24.166;2023-03-16T05:07:15;22.70;57.10
54485;DHT22;45006;56.958;24.166;2023-03-16T05:09:42;22.70;57.10
54485;DHT22;45006;56.958;24.166;2023-03-16T05:12:09;22.70;57.00
54485;DHT22;45006;56.958;24.166;2023-03-16T05:14:36;22.70;57.00
54485;DHT22;45006;56.958;24.166;2023-03-16T05:17:03;22.70;57.60
54485;DHT22;45006;56.958;24.166;2023-03-16T05:19:30;22.70;57.00
54485;DHT22;45006;56.958;24.166;2023-03-16T05:21:58;22.70;57.00
54485;DHT22;45006;56.958;24.166;2023-03-16T05:24:25;22.70;57.00
54485;DHT22;45006;56.958;24.166;2023-03-16T05:26:52;22.70;57.00
54485;DHT22;45006;56.958;24.166;2023-03-16T05:29:19;22.70;57.00
54485;DHT22;45006;56.958;24.166;2023-03-16T05:31:46;22.70;56.90
54485;DHT22;45006;56.958;24.166;2023-03-16T05:34:13;22.70;56.90
54485;DHT22;45006;56.958;24.166;2023-03-16T05:36:40;22.70;57.00
54485;DHT22;45006;56.958;24.166;2023-03-16T05:39:07;22.70;56.90
54485;DHT22;45006;56.958;24.166;2023-03-16T05:41:34;22.70;56.90
54485;DHT22;45006;56.958;24.166;2023-03-16T05:44:02;22.70;56.90
54485;DHT22;45006;56.958;24.166;2023-03-16T05:46:30;22.70;56.90
54485;DHT22;45006;56.958;24.166;2023-03-16T05:48:58;22.70;56.90
54485;DHT22;45006;56.958;24.166;2023-03-16T05:51:26;22.70;56.90
54485;DHT22;45006;56.958;24.166;2023-03-16T05:53:53;22.70;56.90
54485;DHT22;45006;56.958;24.166;2023-03-16T05:56:24;22.70;57.50
54485;DHT22;45006;56.958;24.166;2023-03-16T05:58:54;22.70;56.90
54485;DHT22;45006;56.958;24.166;2023-03-16T06:01:22;22.70;56.90
54485;DHT22;45006;56.958;24.166;2023-03-16T06:03:50;22.70;56.80
54485;DHT22;45006;56.958;24.166;2023-03-16T06:06:22;22.70;56.90
54485;DHT22;45006;56.958;24.166;2023-03-16T06:08:49;22.70;56.90
54485;DHT22;45006;56.958;24.166;2023-03-16T06:11:16;22.70;56.90
54485;DHT22;45006;56.958;24.166;2023-03-16T06:13:43;22.70;56.90
54485;DHT22;45006;56.958;24.166;2023-03-16T06:16:16;22.70;56.90
54485;DHT22;45006;56.958;24.166;2023-03-16T06:18:43;22.70;56.80
54485;DHT22;45006;56.958;24.166;2023-03-16T06:21:10;22.70;57.00
54485;DHT22;45006;56.958;24.166;2023-03-16T06:23:37;22.70;57.00
54485;DHT22;45006;56.958;24.166;2023-03-16T06:26:04;22.70;57.10
54485;DHT22;45006;56.958;24.166;2023-03-16T06:28:31;22.70;57.20
54485;DHT22;45006;56.958;24.166;2023-03-16T06:30:58;22.70;57.30
54485;DHT22;45006;56.958;24.166;2023-03-16T06:33:25;22.80;57.50
54485;DHT22;45006;56.958;24.166;2023-03-16T06:35:52;22.80;57.50
54485;DHT22;45006;56.958;24.166;2023-03-16T06:38:19;22.80;57.60
54485;DHT22;45006;56.958;24.166;2023-03-16T06:40:51;22.70;57.60
54485;DHT22;45006;56.958;24.166;2023-03-16T06:43:19;22.80;57.70
54485;DHT22;45006;56.958;24.166;2023-03-16T06:45:46;22.80;57.80
54485;DHT22;45006;56.958;24.166;2023-03-16T06:48:13;22.80;58.40
54485;DHT22;45006;56.958;24.166;2023-03-16T06:50:41;22.80;57.80
54485;DHT22;45006;56.958;24.166;2023-03-16T06:53:07;22.80;57.90
54485;DHT22;45006;56.958;24.166;2023-03-16T06:55:34;22.80;58.00
54485;DHT22;45006;56.958;24.166;2023-03-16T06:58:03;22.80;58.00
54485;DHT22;45006;56.958;24.166;2023-03-16T07:00:30;22.80;58.10
54485;DHT22;45006;56.958;24.166;2023-03-16T07:02:57;22.80;58.20
54485;DHT22;45006;56.958;24.166;2023-03-16T07:05:26;22.80;58.30
54485;DHT22;45006;56.958;24.166;2023-03-16T07:07:53;22.80;58.30
54485;DHT22;45006;56.958;24.166;2023-03-16T07:10:20;22.80;58.30
54485;DHT22;45006;56.958;24.166;2023-03-16T07:12:47;22.80;58.40
54485;DHT22;45006;56.958;24.166;2023-03-16T07:15:16;22.90;58.50
54485;DHT22;45006;56.958;24.166;2023-03-16T07:17:43;22.90;58.50
54485;DHT22;45006;56.958;24.166;2023-03-16T07:20:10;22.90;58.50
54485;DHT22;45006;56.958;24.166;2023-03-16T07:22:39;22.90;58.70
54485;DHT22;45006;56.958;24.166;2023-03-16T07:25:07;22.90;58.70
54485;DHT22;45006;56.958;24.166;2023-03-16T07:27:35;22.90;58.80
54485;DHT22;45006;56.958;24.166;2023-03-16T07:30:03;22.90;58.80
54485;DHT22;45006;56.958;24.166;2023-03-16T07:32:30;22.90;58.90
54485;DHT22;45006;56.958;24.166;2023-03-16T07:34:58;22.90;59.10
54485;DHT22;45006;56.958;24.166;2023-03-16T07:37:25;22.90;59.10
54485;DHT22;45006;56.958;24.166;2023-03-16T07:39:52;22.90;59.10
54485;DHT22;45006;56.958;24.166;2023-03-16T07:42:19;22.90;59.20
54485;DHT22;45006;56.958;24.166;2023-03-16T07:44:48;22.90;59.30
54485;DHT22;45006;56.958;24.166;2023-03-16T07:47:17;22.90;59.40
54485;DHT22;45006;56.958;24.166;2023-03-16T07:49:44;22.90;59.40
54485;DHT22;45006;56.958;24.166;2023-03-16T07:52:11;22.90;59.40
54485;DHT22;45006;56.958;24.166;2023-03-16T07:54:39;22.90;59.50
54485;DHT22;45006;56.958;24.166;2023-03-16T07:57:07;23.00;59.60
54485;DHT22;45006;56.958;24.166;2023-03-16T07:59:35;23.00;59.70
54485;DHT22;45006;56.958;24.166;2023-03-16T08:02:02;23.00;59.70
54485;DHT22;45006;56.958;24.166;2023-03-16T08:04:29;23.00;59.70
54485;DHT22;45006;56.958;24.166;2023-03-16T08:06:57;23.00;59.10
54485;DHT22;45006;56.958;24.166;2023-03-16T08:09:26;23.00;58.90
54485;DHT22;45006;56.958;24.166;2023-03-16T08:11:53;23.00;58.70
54485;DHT22;45006;56.958;24.166;2023-03-16T08:14:20;23.00;58.40
54485;DHT22;45006;56.958;24.166;2023-03-16T08:16:47;23.00;58.50
54485;DHT22;45006;56.958;24.166;2023-03-16T08:19:14;22.90;58.40
54485;DHT22;45006;56.958;24.166;2023-03-16T08:21:43;22.90;58.20
54485;DHT22;45006;56.958;24.166;2023-03-16T08:24:27;22.90;57.90
54485;DHT22;45006;56.958;24.166;2023-03-16T08:26:55;22.90;57.70
54485;DHT22;45006;56.958;24.166;2023-03-16T08:29:24;22.90;57.60
54485;DHT22;45006;56.958;24.166;2023-03-16T08:31:52;22.90;57.50
54485;DHT22;45006;56.958;24.166;2023-03-16T08:34:25;22.90;57.60
54485;DHT22;45006;56.958;24.166;2023-03-16T08:36:53;22.90;57.60
54485;DHT22;45006;56.958;24.166;2023-03-16T08:39:19;22.90;57.90
54485;DHT22;45006;56.958;24.166;2023-03-16T08:41:47;22.90;57.80
54485;DHT22;45006;56.958;24.166;2023-03-16T08:44:14;22.90;57.90
54485;DHT22;45006;56.958;24.166;2023-03-16T08:46:41;22.90;57.60
54485;DHT22;45006;56.958;24.166;2023-03-16T08:49:08;22.80;57.60
54485;DHT22;45006;56.958;24.166;2023-03-16T08:51:35;22.90;57.70
54485;DHT22;45006;56.958;24.166;2023-03-16T08:54:02;22.90;57.70
54485;DHT22;45006;56.958;24.166;2023-03-16T08:56:30;22.90;57.80
54485;DHT22;45006;56.958;24.166;2023-03-16T08:58:58;22.90;57.80
54485;DHT22;45006;56.958;24.166;2023-03-16T09:01:25;22.90;57.80
54485;DHT22;45006;56.958;24.166;2023-03-16T09:03:53;22.90;57.80
54485;DHT22;45006;56.958;24.166;2023-03-16T09:06:20;22.90;57.80
54485;DHT22;45006;56.958;24.166;2023-03-16T09:08:49;22.90;57.80
54485;DHT22;45006;56.958;24.166;2023-03-16T09:11:17;22.90;57.90
54485;DHT22;45006;56.958;24.166;2023-03-16T09:13:44;22.90;57.80
54485;DHT22;45006;56.958;24.166;2023-03-16T09:16:13;22.90;57.70
54485;DHT22;45006;56.958;24.166;2023-03-16T09:18:42;22.90;57.70
54485;DHT22;45006;56.958;24.166;2023-03-16T09:21:10;22.90;57.70
54485;DHT22;45006;56.958;24.166;2023-03-16T09:23:40;22.90;57.70
54485;DHT22;45006;56.958;24.166;2023-03-16T09:26:10;22.90;57.80
54485;DHT22;45006;56.958;24.166;2023-03-16T09:28:39;22.90;57.80
54485;DHT22;45006;56.958;24.166;2023-03-16T09:31:12;22.90;57.90
54485;DHT22;45006;56.958;24.166;2023-03-16T09:33:41;22.90;57.90
54485;DHT22;45006;56.958;24.166;2023-03-16T09:36:10;22.90;57.90
54485;DHT22;45006;56.958;24.166;2023-03-16T09:38:39;22.80;57.90
54485;DHT22;45006;56.958;24.166;2023-03-16T09:44:35;22.80;58.00
54485;DHT22;45006;56.958;24.166;2023-03-16T09:47:06;22.90;58.00
54485;DHT22;45006;56.958;24.166;2023-03-16T09:49:44;22.90;58.10
54485;DHT22;45006;56.958;24.166;2023-03-16T09:57:51;22.90;58.10
54485;DHT22;45006;56.958;24.166;2023-03-16T10:00:23;22.90;58.10
54485;DHT22;45006;56.958;24.166;2023-03-16T10:05:51;22.90;58.10
54485;DHT22;45006;56.958;24.166;2023-03-16T10:08:32;22.90;58.10
54485;DHT22;45006;56.958;24.166;2023-03-16T10:13:42;22.90;58.10
54485;DHT22;45006;56.958;24.166;2023-03-16T10:16:28;22.90;58.20
54485;DHT22;45006;56.958;24.166;2023-03-16T10:22:00;22.90;58.20
54485;DHT22;45006;56.958;24.166;2023-03-16T10:27:19;22.90;58.20
54485;DHT22;45006;56.958;24.166;2023-03-16T10:29:48;22.90;58.20
54485;DHT22;45006;56.958;24.166;2023-03-16T10:32:17;22.90;58.20
54485;DHT22;45006;56.958;24.166;2023-03-16T10:34:55;22.90;58.20
54485;DHT22;45006;56.958;24.166;2023-03-16T10:37:23;22.80;58.20
54485;DHT22;45006;56.958;24.166;2023-03-16T10:39:51;22.90;58.20
54485;DHT22;45006;56.958;24.166;2023-03-16T10:42:20;22.80;58.20
54485;DHT22;45006;56.958;24.166;2023-03-16T10:44:47;22.90;58.30
54485;DHT22;45006;56.958;24.166;2023-03-16T10:47:21;22.90;58.20
54485;DHT22;45006;56.958;24.166;2023-03-16T10:49:49;22.80;58.20
54485;DHT22;45006;56.958;24.166;2023-03-16T10:54:54;22.90;58.20
54485;DHT22;45006;56.958;24.166;2023-03-16T10:59:58;22.90;58.20
54485;DHT22;45006;56.958;24.166;2023-03-16T11:02:35;22.90;58.20
54485;DHT22;45006;56.958;24.166;2023-03-16T11:05:29;22.90;58.20
54485;DHT22;45006;56.958;24.166;2023-03-16T11:08:12;22.90;58.30
54485;DHT22;45006;56.958;24.166;2023-03-16T11:10:45;22.90;58.30
54485;DHT22;45006;56.958;24.166;2023-03-16T11:13:22;22.90;58.30
54485;DHT22;45006;56.958;24.166;2023-03-16T11:16:00;22.90;58.30
54485;DHT22;45006;56.958;24.166;2023-03-16T11:18:40;22.90;58.30
54485;DHT22;45006;56.958;24.166;2023-03-16T11:21:20;22.90;58.30
54485;DHT22;45006;56.958;24.166;2023-03-16T11:23:53;22.90;58.30
54485;DHT22;45006;56.958;24.166;2023-03-16T11:26:36;22.90;58.30
54485;DHT22;45006;56.958;24.166;2023-03-16T11:29:19;22.90;58.30
54485;DHT22;45006;56.958;24.166;2023-03-16T11:31:54;22.90;58.30
54485;DHT22;45006;56.958;24.166;2023-03-16T11:34:26;22.90;58.30
54485;DHT22;45006;56.958;24.166;2023-03-16T11:42:25;22.90;58.30
54485;DHT22;45006;56.958;24.166;2023-03-16T11:47:50;22.90;58.40
54485;DHT22;45006;56.958;24.166;2023-03-16T11:50:42;22.90;58.30
54485;DHT22;45006;56.958;24.166;2023-03-16T12:07:42;22.90;58.30
54485;DHT22;45006;56.958;24.166;2023-03-16T12:15:51;22.90;58.30
54485;DHT22;45006;56.958;24.166;2023-03-16T12:18:44;22.90;58.20
54485;DHT22;45006;56.958;24.166;2023-03-16T12:21:20;22.90;58.30
54485;DHT22;45006;56.958;24.166;2023-03-16T12:23:53;22.90;58.20
54485;DHT22;45006;56.958;24.166;2023-03-16T12:26:25;22.90;58.30
54485;DHT22;45006;56.958;24.166;2023-03-16T12:28:57;22.90;58.30
54485;DHT22;45006;56.958;24.166;2023-03-16T12:45:16;22.90;58.30
54485;DHT22;45006;56.958;24.166;2023-03-16T12:47:58;22.90;58.30
54485;DHT22;45006;56.958;24.166;2023-03-16T12:50:26;22.90;58.30
54485;DHT22;45006;56.958;24.166;2023-03-16T12:52:53;22.90;58.30
54485;DHT22;45006;56.958;24.166;2023-03-16T12:55:38;22.90;58.30
54485;DHT22;45006;56.958;24.166;2023-03-16T12:58:08;22.90;58.30
54485;DHT22;45006;56.958;24.166;2023-03-16T13:00:40;22.90;58.30
54485;DHT22;45006;56.958;24.166;2023-03-16T13:03:19;22.90;58.30
54485;DHT22;45006;56.958;24.166;2023-03-16T13:05:53;22.90;58.20
54485;DHT22;45006;56.958;24.166;2023-03-16T13:08:23;23.00;58.30
54485;DHT22;45006;56.958;24.166;2023-03-16T13:11:07;23.00;58.20
54485;DHT22;45006;56.958;24.166;2023-03-16T13:13:51;23.00;58.30
54485;DHT22;45006;56.958;24.166;2023-03-16T13:16:30;23.00;58.00
54485;DHT22;45006;56.958;24.166;2023-03-16T13:19:25;23.00;58.00
54485;DHT22;45006;56.958;24.166;2023-03-16T13:22:05;23.00;58.00
54485;DHT22;45006;56.958;24.166;2023-03-16T13:24:49;23.00;57.90
54485;DHT22;45006;56.958;24.166;2023-03-16T13:27:22;22.90;57.70
54485;DHT22;45006;56.958;24.166;2023-03-16T13:30:01;22.90;57.70
54485;DHT22;45006;56.958;24.166;2023-03-16T13:32:32;22.90;57.70
54485;DHT22;45006;56.958;24.166;2023-03-16T13:35:01;22.90;57.60
54485;DHT22;45006;56.958;24.166;2023-03-16T13:37:31;22.90;57.60
54485;DHT22;45006;56.958;24.166;2023-03-16T13:40:00;22.90;57.50
54485;DHT22;45006;56.958;24.166;2023-03-16T13:42:31;22.90;57.50
54485;DHT22;45006;56.958;24.166;2023-03-16T13:45:12;22.90;57.50
54485;DHT22;45006;56.958;24.166;2023-03-16T13:47:43;22.90;57.20
54485;DHT22;45006;56.958;24.166;2023-03-16T13:50:13;22.90;57.30
54485;DHT22;45006;56.958;24.166;2023-03-16T13:52:41;22.90;57.40
54485;DHT22;45006;56.958;24.166;2023-03-16T13:55:16;22.90;57.40
54485;DHT22;45006;56.958;24.166;2023-03-16T13:57:46;22.90;57.30
54485;DHT22;45006;56.958;24.166;2023-03-16T14:00:19;22.90;57.30
54485;DHT22;45006;56.958;24.166;2023-03-16T14:02:51;22.90;57.20
54485;DHT22;45006;56.958;24.166;2023-03-16T14:05:28;22.90;57.60
54485;DHT22;45006;56.958;24.166;2023-03-16T14:07:58;22.90;57.20
54485;DHT22;45006;56.958;24.166;2023-03-16T14:10:33;22.90;57.20
54485;DHT22;45006;56.958;24.166;2023-03-16T14:13:09;22.90;57.20
54485;DHT22;45006;56.958;24.166;2023-03-16T14:15:37;22.90;57.20
54485;DHT22;45006;56.958;24.166;2023-03-16T14:18:18;22.90;57.20
54485;DHT22;45006;56.958;24.166;2023-03-16T14:20:52;22.90;57.20
54485;DHT22;45006;56.958;24.166;2023-03-16T14:23:26;22.90;57.20
54485;DHT22;45006;56.958;24.166;2023-03-16T14:25:56;22.90;57.20
54485;DHT22;45006;56.958;24.166;2023-03-16T14:28:30;22.80;57.10
54485;DHT22;45006;56.958;24.166;2023-03-16T14:31:07;22.80;57.10
54485;DHT22;45006;56.958;24.166;2023-03-16T14:33:37;22.80;57.10
54485;DHT22;45006;56.958;24.166;2023-03-16T14:36:15;22.80;57.10
54485;DHT22;45006;56.958;24.166;2023-03-16T14:38:45;22.80;57.20
54485;DHT22;45006;56.958;24.166;2023-03-16T14:41:20;22.80;57.20
54485;DHT22;45006;56.958;24.166;2023-03-16T14:43:56;22.80;57.10
54485;DHT22;45006;56.958;24.166;2023-03-16T14:46:27;22.80;57.10
54485;DHT22;45006;56.958;24.166;2023-03-16T14:49:06;22.80;57.20
54485;DHT22;45006;56.958;24.166;2023-03-16T14:51:37;22.80;57.00
54485;DHT22;45006;56.958;24.166;2023-03-16T14:54:14;22.80;57.10
54485;DHT22;45006;56.958;24.166;2023-03-16T14:56:46;22.80;57.10
54485;DHT22;45006;56.958;24.166;2023-03-16T14:59:14;22.80;57.10
54485;DHT22;45006;56.958;24.166;2023-03-16T15:01:41;22.80;57.10
54485;DHT22;45006;56.958;24.166;2023-03-16T15:04:16;22.80;57.10
54485;DHT22;45006;56.958;24.166;2023-03-16T15:06:45;22.80;57.10
54485;DHT22;45006;56.958;24.166;2023-03-16T15:11:53;22.80;57.10
54485;DHT22;45006;56.958;24.166;2023-03-16T15:14:21;22.70;57.00
54485;DHT22;45006;56.958;24.166;2023-03-16T15:17:07;22.80;57.10
54485;DHT22;45006;56.958;24.166;2023-03-16T15:19:35;22.80;57.10
54485;DHT22;45006;56.958;24.166;2023-03-16T15:22:03;22.70;57.00
54485;DHT22;45006;56.958;24.166;2023-03-16T15:24:30;22.70;57.10
54485;DHT22;45006;56.958;24.166;2023-03-16T15:27:00;22.70;57.10
54485;DHT22;45006;56.958;24.166;2023-03-16T15:29:28;22.70;57.10
54485;DHT22;45006;56.958;24.166;2023-03-16T15:31:55;22.70;57.20
54485;DHT22;45006;56.958;24.166;2023-03-16T15:34:22;22.70;57.20
54485;DHT22;45006;56.958;24.166;2023-03-16T15:36:49;22.70;57.20
54485;DHT22;45006;56.958;24.166;2023-03-16T15:39:23;22.70;57.20
54485;DHT22;45006;56.958;24.166;2023-03-16T15:41:50;22.70;57.20
54485;DHT22;45006;56.958;24.166;2023-03-16T15:44:19;22.70;57.20
54485;DHT22;45006;56.958;24.166;2023-03-16T15:46:46;22.70;57.20
54485;DHT22;45006;56.958;24.166;2023-03-16T15:49:14;22.70;57.20
54485;DHT22;45006;56.958;24.166;2023-03-16T15:51:42;22.70;57.20
54485;DHT22;45006;56.958;24.166;2023-03-16T15:54:10;22.70;57.20
54485;DHT22;45006;56.958;24.166;2023-03-16T15:56:39;22.70;57.20
54485;DHT22;45006;56.958;24.166;2023-03-16T15:59:19;22.60;57.20
54485;DHT22;45006;56.958;24.166;2023-03-16T16:01:49;22.70;57.30
54485;DHT22;45006;56.958;24.166;2023-03-16T16:04:20;22.60;57.20
54485;DHT22;45006;56.958;24.166;2023-03-16T16:06:50;22.60;57.20
54485;DHT22;45006;56.958;24.166;2023-03-16T16:09:20;22.60;57.20
54485;DHT22;45006;56.958;24.166;2023-03-16T16:11:48;22.70;57.30
54485;DHT22;45006;56.958;24.166;2023-03-16T16:14:20;22.60;57.20
54485;DHT22;45006;56.958;24.166;2023-03-16T16:16:49;22.60;57.20
54485;DHT22;45006;56.958;24.166;2023-03-16T16:19:17;22.60;57.20
54485;DHT22;45006;56.958;24.166;2023-03-16T16:21:44;22.60;57.20
54485;DHT22;45006;56.958;24.166;2023-03-16T16:24:16;22.60;57.30
54485;DHT22;45006;56.958;24.166;2023-03-16T16:26:45;22.60;57.30
54485;DHT22;45006;56.958;24.166;2023-03-16T16:29:28;22.60;57.30
54485;DHT22;45006;56.958;24.166;2023-03-16T16:31:57;22.60;57.30
54485;DHT22;45006;56.958;24.166;2023-03-16T16:34:25;22.60;57.30
54485;DHT22;45006;56.958;24.166;2023-03-16T16:36:54;22.60;57.30
54485;DHT22;45006;56.958;24.166;2023-03-16T16:39:21;22.60;57.30
54485;DHT22;45006;56.958;24.166;2023-03-16T16:41:50;22.60;57.30
54485;DHT22;45006;56.958;24.166;2023-03-16T16:44:23;22.60;57.30
54485;DHT22;45006;56.958;24.166;2023-03-16T16:46:53;22.60;57.40
54485;DHT22;45006;56.958;24.166;2023-03-16T16:49:26;22.60;57.40
54485;DHT22;45006;56.958;24.166;2023-03-16T16:51:54;22.60;57.40